createdAt,value
2023-01-02T00:00:27.963Z,860.92
2023-01-02T00:01:27.903Z,860.96
2023-01-02T00:02:28.029Z,860.94
2023-01-02T00:03:27.966Z,860.95
2023-01-02T00:04:27.875Z,860.91
2023-01-02T00:05:27.860Z,860.86
2023-01-02T00:06:27.864Z,860.85
2023-01-02T00:07:27.845Z,860.90
2023-01-02T00:08:27.826Z,860.82
2023-01-02T00:09:27.814Z,860.79
2023-01-02T00:10:27.810Z,860.79
2023-01-02T00:11:27.789Z,860.76
2023-01-02T00:12:27.826Z,860.72
2023-01-02T00:13:27.778Z,860.75
2023-01-02T00:14:27.801Z,860.72
2023-01-02T00:15:27.765Z,860.74
2023-01-02T00:16:27.802Z,860.68
2023-01-02T00:17:27.723Z,860.67
2023-01-02T00:18:27.742Z,860.68
2023-01-02T00:19:27.700Z,860.69
2023-01-02T00:20:27.690Z,860.71
2023-01-02T00:21:27.681Z,860.71
2023-01-02T00:22:27.685Z,860.69
2023-01-02T00:23:27.663Z,860.66
2023-01-02T00:24:27.693Z,860.64
2023-01-02T00:25:27.647Z,860.69
2023-01-02T00:26:27.623Z,860.63
2023-01-02T00:27:27.615Z,860.57
2023-01-02T00:28:27.602Z,860.62
2023-01-02T00:29:27.608Z,860.69
2023-01-02T00:30:32.293Z,860.66
2023-01-02T00:31:28.616Z,860.65
2023-01-02T00:32:27.556Z,860.61
2023-01-02T00:33:27.557Z,860.61
2023-01-02T00:34:27.532Z,860.68
2023-01-02T00:35:27.547Z,860.64
2023-01-02T00:36:27.545Z,860.68
2023-01-02T00:37:27.504Z,860.64
2023-01-02T00:38:27.497Z,860.65
2023-01-02T00:39:27.482Z,860.62
2023-01-02T00:40:27.467Z,860.68
2023-01-02T00:41:27.470Z,860.64
2023-01-02T00:42:27.475Z,860.60
2023-01-02T00:43:27.456Z,860.59
2023-01-02T00:44:27.438Z,860.62
2023-01-02T00:45:27.418Z,860.64
2023-01-02T00:46:27.451Z,860.64
2023-01-02T00:47:27.414Z,860.64
2023-01-02T00:48:27.412Z,860.62
2023-01-02T00:49:27.376Z,860.64
2023-01-02T00:50:27.356Z,860.63
2023-01-02T00:51:27.352Z,860.64
2023-01-02T00:52:27.361Z,860.65
2023-01-02T00:53:27.331Z,860.66
2023-01-02T00:54:27.349Z,860.69
2023-01-02T00:55:27.306Z,860.67
2023-01-02T00:56:27.289Z,860.65
2023-01-02T00:57:27.288Z,860.63
2023-01-02T00:58:27.288Z,860.61
2023-01-02T00:59:27.259Z,860.61
2023-01-02T01:00:27.268Z,860.56
2023-01-02T01:01:27.379Z,860.56
2023-01-02T01:02:27.469Z,860.57
2023-01-02T01:03:27.217Z,860.55
2023-01-02T01:04:27.216Z,860.54
2023-01-02T01:05:27.198Z,860.55
2023-01-02T01:06:27.218Z,860.50
2023-01-02T01:07:27.175Z,860.53
2023-01-02T01:08:27.160Z,860.47
2023-01-02T01:09:27.165Z,860.47
2023-01-02T01:10:27.142Z,860.45
2023-01-02T01:11:27.129Z,860.51
2023-01-02T01:12:27.146Z,860.54
2023-01-02T01:13:27.106Z,860.56
2023-01-02T01:14:27.106Z,860.48
2023-01-02T01:15:27.086Z,860.47
2023-01-02T01:16:27.156Z,860.51
2023-01-02T01:17:27.062Z,860.49
2023-01-02T01:18:27.076Z,860.51
2023-01-02T01:19:27.040Z,860.50
2023-01-02T01:20:27.040Z,860.51
2023-01-02T01:21:27.019Z,860.49
2023-01-02T01:22:27.003Z,860.48
2023-01-02T01:23:26.995Z,860.51
2023-01-02T01:24:27.028Z,860.46
2023-01-02T01:25:26.981Z,860.44
2023-01-02T01:26:26.959Z,860.45
2023-01-02T01:27:26.957Z,860.49
2023-01-02T01:28:26.938Z,860.45
2023-01-02T01:29:27.058Z,860.54
2023-01-02T01:30:26.933Z,860.49
2023-01-02T01:31:26.937Z,860.53
2023-01-02T01:32:26.895Z,860.56
2023-01-02T01:33:26.889Z,860.57
2023-01-02T01:34:26.902Z,860.60
2023-01-02T01:35:26.875Z,860.58
2023-01-02T01:36:26.892Z,860.61
2023-01-02T01:37:26.840Z,860.55
2023-01-02T01:38:26.838Z,860.54
2023-01-02T01:39:26.835Z,860.58
2023-01-02T01:40:26.804Z,860.55
2023-01-02T01:41:26.822Z,860.55
2023-01-02T01:42:26.809Z,860.58
2023-01-02T01:43:26.775Z,860.59
2023-01-02T01:44:26.767Z,860.62
2023-01-02T01:45:26.854Z,860.60
2023-01-02T01:46:26.864Z,860.61
2023-01-02T01:47:26.746Z,860.64
2023-01-02T01:48:26.755Z,860.61
2023-01-02T01:49:34.277Z,860.54
2023-01-02T01:50:34.217Z,860.57
2023-01-02T01:51:34.241Z,860.58
2023-01-02T01:52:34.253Z,860.56
2023-01-02T01:53:34.193Z,860.56
2023-01-02T01:54:34.172Z,860.56
2023-01-02T01:55:34.190Z,860.56
2023-01-02T01:56:34.154Z,860.58
2023-01-02T01:57:34.157Z,860.58
2023-01-02T01:58:34.133Z,860.56
2023-01-02T01:59:34.119Z,860.52
2023-01-02T02:00:34.117Z,860.50
2023-01-02T02:01:26.759Z,860.48
2023-01-02T02:02:26.813Z,860.50
2023-01-02T02:03:26.557Z,860.53
2023-01-02T02:04:26.574Z,860.50
2023-01-02T02:05:26.567Z,860.52
2023-01-02T02:06:26.526Z,860.50
2023-01-02T02:07:26.553Z,860.46
2023-01-02T02:08:26.526Z,860.45
2023-01-02T02:09:26.501Z,860.46
2023-01-02T02:10:26.506Z,860.48
2023-01-02T02:11:26.470Z,860.48
2023-01-02T02:12:28.411Z,860.52
2023-01-02T02:13:26.455Z,860.51
2023-01-02T02:14:26.450Z,860.49
2023-01-02T02:15:26.454Z,860.52
2023-01-02T02:16:26.575Z,860.47
2023-01-02T02:17:26.416Z,860.46
2023-01-02T02:18:26.397Z,860.46
2023-01-02T02:19:26.379Z,860.42
2023-01-02T02:20:26.396Z,860.40
2023-01-02T02:21:26.495Z,860.43
2023-01-02T02:22:26.351Z,860.43
2023-01-02T02:23:26.335Z,860.45
2023-01-02T02:24:26.327Z,860.45
2023-01-02T02:25:26.419Z,860.38
2023-01-02T02:26:26.311Z,860.36
2023-01-02T02:27:26.327Z,860.37
2023-01-02T02:28:26.284Z,860.37
2023-01-02T02:29:26.274Z,860.40
2023-01-02T02:30:26.261Z,860.38
2023-01-02T02:31:26.326Z,860.32
2023-01-02T02:32:26.256Z,860.33
2023-01-02T02:33:26.260Z,860.32
2023-01-02T02:34:26.224Z,860.33
2023-01-02T02:35:26.229Z,860.32
2023-01-02T02:36:26.201Z,860.35
2023-01-02T02:37:26.212Z,860.40
2023-01-02T02:38:26.175Z,860.32
2023-01-02T02:39:26.191Z,860.35
2023-01-02T02:40:26.165Z,860.32
2023-01-02T02:41:26.242Z,860.31
2023-01-02T02:42:26.144Z,860.32
2023-01-02T02:43:26.128Z,860.28
2023-01-02T02:44:26.114Z,860.28
2023-01-02T02:45:26.126Z,860.27
2023-01-02T02:46:26.088Z,860.27
2023-01-02T02:47:26.089Z,860.29
2023-01-02T02:48:26.066Z,860.23
2023-01-02T02:49:26.049Z,860.20
2023-01-02T02:50:26.065Z,860.24
2023-01-02T02:51:26.049Z,860.22
2023-01-02T02:52:26.021Z,860.18
2023-01-02T02:53:26.050Z,860.20
2023-01-02T02:54:25.997Z,860.19
2023-01-02T02:55:25.986Z,860.22
2023-01-02T02:56:25.992Z,860.13
2023-01-02T02:57:26.009Z,860.14
2023-01-02T02:58:25.954Z,860.17
2023-01-02T02:59:25.956Z,860.09
2023-01-02T03:00:25.929Z,860.14
2023-01-02T03:01:30.154Z,860.13
2023-01-02T03:02:27.059Z,860.13
2023-01-02T03:03:26.016Z,860.14
2023-01-02T03:04:25.890Z,860.20
2023-01-02T03:05:25.891Z,860.16
2023-01-02T03:06:25.866Z,860.16
2023-01-02T03:07:25.851Z,860.17
2023-01-02T03:08:32.708Z,860.15
2023-01-02T03:09:26.956Z,860.14
2023-01-02T03:10:25.824Z,860.17
2023-01-02T03:11:25.817Z,860.16
2023-01-02T03:12:25.804Z,860.15
2023-01-02T03:13:25.798Z,860.12
2023-01-02T03:14:25.778Z,860.11
2023-01-02T03:15:25.793Z,860.14
2023-01-02T03:16:25.815Z,860.16
2023-01-02T03:17:25.791Z,860.16
2023-01-02T03:18:25.734Z,860.15
2023-01-02T03:19:25.723Z,860.11
2023-01-02T03:20:25.710Z,860.05
2023-01-02T03:21:31.050Z,860.08
2023-01-02T03:22:26.690Z,860.06
2023-01-02T03:23:25.688Z,859.98
2023-01-02T03:24:25.669Z,860.02
2023-01-02T03:25:25.673Z,860.05
2023-01-02T03:26:25.644Z,860.08
2023-01-02T03:27:25.644Z,860.03
2023-01-02T03:28:25.626Z,860.11
2023-01-02T03:29:25.623Z,860.08
2023-01-02T03:30:25.694Z,860.08
2023-01-02T03:31:25.590Z,860.04
2023-01-02T03:32:25.581Z,860.03
2023-01-02T03:33:25.594Z,860.08
2023-01-02T03:34:25.572Z,860.08
2023-01-02T03:35:25.543Z,860.03
2023-01-02T03:36:25.552Z,860.07
2023-01-02T03:37:25.524Z,860.04
2023-01-02T03:38:25.535Z,860.02
2023-01-02T03:39:25.538Z,860.02
2023-01-02T03:40:25.493Z,860.06
2023-01-02T03:41:25.519Z,860.04
2023-01-02T03:42:25.488Z,860.06
2023-01-02T03:43:25.457Z,860.06
2023-01-02T03:44:25.447Z,860.06
2023-01-02T03:45:25.469Z,860.05
2023-01-02T03:46:25.467Z,860.01
2023-01-02T03:47:25.412Z,860.01
2023-01-02T03:48:25.403Z,860.02
2023-01-02T03:49:25.392Z,860.04
2023-01-02T03:50:25.381Z,860.03
2023-01-02T03:51:25.424Z,860.09
2023-01-02T03:52:26.199Z,860.07
2023-01-02T03:53:25.350Z,860.02
2023-01-02T03:54:25.340Z,860.00
2023-01-02T03:55:25.332Z,859.99
2023-01-02T03:56:25.319Z,860.02
2023-01-02T03:57:25.360Z,860.00
2023-01-02T03:58:25.296Z,860.01
2023-01-02T03:59:25.282Z,860.00
2023-01-02T04:00:25.273Z,859.97
2023-01-02T04:01:25.420Z,859.98
2023-01-02T04:02:25.481Z,859.96
2023-01-02T04:03:25.344Z,859.97
2023-01-02T04:04:25.230Z,859.95
2023-01-02T04:05:25.215Z,859.93
2023-01-02T04:06:25.211Z,859.91
2023-01-02T04:07:25.193Z,859.92
2023-01-02T04:08:25.198Z,859.96
2023-01-02T04:09:25.200Z,859.95
2023-01-02T04:10:25.166Z,859.96
2023-01-02T04:11:25.148Z,859.96
2023-01-02T04:12:25.171Z,859.97
2023-01-02T04:13:25.159Z,859.95
2023-01-02T04:14:25.125Z,859.97
2023-01-02T04:15:25.185Z,860.01
2023-01-02T04:16:25.104Z,859.97
2023-01-02T04:17:25.087Z,860.00
2023-01-02T04:18:25.094Z,859.97
2023-01-02T04:19:25.076Z,859.96
2023-01-02T04:20:25.059Z,859.96
2023-01-02T04:21:25.075Z,859.94
2023-01-02T04:22:25.047Z,859.92
2023-01-02T04:23:25.019Z,859.95
2023-01-02T04:24:25.010Z,859.92
2023-01-02T04:25:25.001Z,859.94
2023-01-02T04:26:25.004Z,859.93
2023-01-02T04:27:25.020Z,859.91
2023-01-02T04:28:24.971Z,859.87
2023-01-02T04:29:24.977Z,859.83
2023-01-02T04:30:24.949Z,859.82
2023-01-02T04:31:25.008Z,859.85
2023-01-02T04:32:24.924Z,859.87
2023-01-02T04:33:24.948Z,859.86
2023-01-02T04:34:24.909Z,859.82
2023-01-02T04:35:24.888Z,859.82
2023-01-02T04:36:24.880Z,859.84
2023-01-02T04:37:24.879Z,859.84
2023-01-02T04:38:24.857Z,859.78
2023-01-02T04:39:24.859Z,859.85
2023-01-02T04:40:24.881Z,859.83
2023-01-02T04:41:24.826Z,859.82
2023-01-02T04:42:24.815Z,859.84
2023-01-02T04:43:24.815Z,859.87
2023-01-02T04:44:24.808Z,859.86
2023-01-02T04:45:24.815Z,859.81
2023-01-02T04:46:24.851Z,859.82
2023-01-02T04:47:24.769Z,859.78
2023-01-02T04:48:24.761Z,859.73
2023-01-02T04:49:24.744Z,859.72
2023-01-02T04:50:24.755Z,859.79
2023-01-02T04:51:24.736Z,859.83
2023-01-02T04:52:24.718Z,859.83
2023-01-02T04:53:24.693Z,859.81
2023-01-02T04:54:24.689Z,859.84
2023-01-02T04:55:24.669Z,859.88
2023-01-02T04:56:24.674Z,859.87
2023-01-02T04:57:24.679Z,859.87
2023-01-02T04:58:24.649Z,859.89
2023-01-02T04:59:24.631Z,859.89
2023-01-02T05:00:24.619Z,859.86
2023-01-02T05:01:24.844Z,859.89
2023-01-02T05:02:24.777Z,859.90
2023-01-02T05:03:24.648Z,859.87
2023-01-02T05:04:24.576Z,859.87
2023-01-02T05:05:24.564Z,859.90
2023-01-02T05:06:24.551Z,859.90
2023-01-02T05:07:24.540Z,859.90
2023-01-02T05:08:24.556Z,859.90
2023-01-02T05:09:24.547Z,859.88
2023-01-02T05:10:24.514Z,859.90
2023-01-02T05:11:24.506Z,859.90
2023-01-02T05:12:24.488Z,859.94
2023-01-02T05:13:24.473Z,859.96
2023-01-02T05:14:24.517Z,859.92
2023-01-02T05:15:24.453Z,859.93
2023-01-02T05:16:24.501Z,859.96
2023-01-02T05:17:24.482Z,859.94
2023-01-02T05:18:24.433Z,859.96
2023-01-02T05:19:24.409Z,859.94
2023-01-02T05:20:24.405Z,859.97
2023-01-02T05:21:24.386Z,859.98
2023-01-02T05:22:24.438Z,859.95
2023-01-02T05:23:24.382Z,859.96
2023-01-02T05:24:24.383Z,859.98
2023-01-02T05:25:24.343Z,859.92
2023-01-02T05:26:24.338Z,859.97
2023-01-02T05:27:24.333Z,859.96
2023-01-02T05:28:24.350Z,859.95
2023-01-02T05:29:24.300Z,859.94
2023-01-02T05:30:24.292Z,859.92
2023-01-02T05:31:24.482Z,859.97
2023-01-02T05:32:24.271Z,859.96
2023-01-02T05:33:24.387Z,859.97
2023-01-02T05:34:24.302Z,859.91
2023-01-02T05:35:30.210Z,859.94
2023-01-02T05:36:25.240Z,859.89
2023-01-02T05:37:24.212Z,859.93
2023-01-02T05:38:24.214Z,859.89
2023-01-02T05:39:24.190Z,859.96
2023-01-02T05:40:24.207Z,859.92
2023-01-02T05:41:24.172Z,859.88
2023-01-02T05:42:24.173Z,859.88
2023-01-02T05:43:24.148Z,859.91
2023-01-02T05:44:24.140Z,859.90
2023-01-02T05:45:24.131Z,859.91
2023-01-02T05:46:24.182Z,859.88
2023-01-02T05:47:24.113Z,859.90
2023-01-02T05:48:24.111Z,859.91
2023-01-02T05:49:24.105Z,859.89
2023-01-02T05:50:24.079Z,859.85
2023-01-02T05:51:24.061Z,859.86
2023-01-02T05:52:24.116Z,859.83
2023-01-02T05:53:24.046Z,859.88
2023-01-02T05:54:24.040Z,859.93
2023-01-02T05:55:24.023Z,859.86
2023-01-02T05:56:24.014Z,859.92
2023-01-02T05:57:23.995Z,859.89
2023-01-02T05:58:24.028Z,859.92
2023-01-02T05:59:23.982Z,859.86
2023-01-02T06:00:23.983Z,859.87
2023-01-02T06:01:23.992Z,859.86
2023-01-02T06:02:24.156Z,859.82
2023-01-02T06:03:23.984Z,859.86
2023-01-02T06:04:23.963Z,859.80
2023-01-02T06:05:23.940Z,859.75
2023-01-02T06:06:23.923Z,859.80
2023-01-02T06:07:23.904Z,859.80
2023-01-02T06:08:23.879Z,859.87
2023-01-02T06:09:23.872Z,859.88
2023-01-02T06:10:23.894Z,859.86
2023-01-02T06:11:23.849Z,859.89
2023-01-02T06:12:23.845Z,859.87
2023-01-02T06:13:23.826Z,859.90
2023-01-02T06:14:23.819Z,859.93
2023-01-02T06:15:23.803Z,859.93
2023-01-02T06:16:23.881Z,859.96
2023-01-02T06:17:23.782Z,859.95
2023-01-02T06:18:23.783Z,859.94
2023-01-02T06:19:23.772Z,860.01
2023-01-02T06:20:23.746Z,860.03
2023-01-02T06:21:23.765Z,860.01
2023-01-02T06:22:23.749Z,860.07
2023-01-02T06:23:23.723Z,860.08
2023-01-02T06:24:23.711Z,860.10
2023-01-02T06:25:23.705Z,860.09
2023-01-02T06:26:23.685Z,860.14
2023-01-02T06:27:23.673Z,860.12
2023-01-02T06:28:23.676Z,860.15
2023-01-02T06:29:23.665Z,860.20
2023-01-02T06:30:23.657Z,860.13
2023-01-02T06:31:23.685Z,860.16
2023-01-02T06:32:23.615Z,860.23
2023-01-02T06:33:23.606Z,860.16
2023-01-02T06:34:23.615Z,860.22
2023-01-02T06:35:23.590Z,860.22
2023-01-02T06:36:23.593Z,860.19
2023-01-02T06:37:23.592Z,860.18
2023-01-02T06:38:23.557Z,860.19
2023-01-02T06:39:23.544Z,860.21
2023-01-02T06:40:23.570Z,860.23
2023-01-02T06:41:23.525Z,860.31
2023-01-02T06:42:23.516Z,860.34
2023-01-02T06:43:23.499Z,860.26
2023-01-02T06:44:23.497Z,860.31
2023-01-02T06:45:23.540Z,860.33
2023-01-02T06:46:23.539Z,860.36
2023-01-02T06:47:23.465Z,860.32
2023-01-02T06:48:23.441Z,860.24
2023-01-02T06:49:23.433Z,860.20
2023-01-02T06:50:26.316Z,860.27
2023-01-02T06:51:24.427Z,860.30
2023-01-02T06:52:23.431Z,860.33
2023-01-02T06:53:23.423Z,860.32
2023-01-02T06:54:23.381Z,860.33
2023-01-02T06:55:23.372Z,860.33
2023-01-02T06:56:23.352Z,860.33
2023-01-02T06:57:23.358Z,860.31
2023-01-02T06:58:23.374Z,860.30
2023-01-02T06:59:23.322Z,860.32
2023-01-02T07:00:23.307Z,860.32
2023-01-02T07:01:23.528Z,860.32
2023-01-02T07:02:23.438Z,860.34
2023-01-02T07:03:23.304Z,860.31
2023-01-02T07:04:23.334Z,860.32
2023-01-02T07:05:24.845Z,860.32
2023-01-02T07:06:23.258Z,860.32
2023-01-02T07:07:23.255Z,860.31
2023-01-02T07:08:23.221Z,860.34
2023-01-02T07:09:23.246Z,860.31
2023-01-02T07:10:23.245Z,860.38
2023-01-02T07:11:23.209Z,860.32
2023-01-02T07:12:23.178Z,860.32
2023-01-02T07:13:23.168Z,860.34
2023-01-02T07:14:23.158Z,860.27
2023-01-02T07:15:23.252Z,860.31
2023-01-02T07:16:23.194Z,860.28
2023-01-02T07:17:23.127Z,860.20
2023-01-02T07:18:23.119Z,860.23
2023-01-02T07:19:23.104Z,860.24
2023-01-02T07:20:23.093Z,860.23
2023-01-02T07:21:23.095Z,860.26
2023-01-02T07:22:23.116Z,860.24
2023-01-02T07:23:23.061Z,860.26
2023-01-02T07:24:23.048Z,860.27
2023-01-02T07:25:23.070Z,860.27
2023-01-02T07:26:23.055Z,860.29
2023-01-02T07:27:23.028Z,860.34
2023-01-02T07:28:23.029Z,860.33
2023-01-02T07:29:23.002Z,860.35
2023-01-02T07:30:22.982Z,860.34
2023-01-02T07:31:23.037Z,860.33
2023-01-02T07:32:27.260Z,860.30
2023-01-02T07:33:22.961Z,860.28
2023-01-02T07:34:22.978Z,860.29
2023-01-02T07:35:22.930Z,860.37
2023-01-02T07:36:22.919Z,860.32
2023-01-02T07:37:22.924Z,860.31
2023-01-02T07:38:22.894Z,860.30
2023-01-02T07:39:22.887Z,860.33
2023-01-02T07:40:27.262Z,860.32
2023-01-02T07:41:23.996Z,860.33
2023-01-02T07:42:22.853Z,860.33
2023-01-02T07:43:22.858Z,860.32
2023-01-02T07:44:22.841Z,860.35
2023-01-02T07:45:22.844Z,860.33
2023-01-02T07:46:22.884Z,860.27
2023-01-02T07:47:22.826Z,860.31
2023-01-02T07:48:22.798Z,860.29
2023-01-02T07:49:22.789Z,860.33
2023-01-02T07:50:22.764Z,860.31
2023-01-02T07:51:26.946Z,860.38
2023-01-02T07:52:22.784Z,860.35
2023-01-02T07:53:22.741Z,860.36
2023-01-02T07:54:22.723Z,860.42
2023-01-02T07:55:22.729Z,860.45
2023-01-02T07:56:22.702Z,860.45
2023-01-02T07:57:22.813Z,860.53
2023-01-02T07:58:22.703Z,860.46
2023-01-02T07:59:22.696Z,860.48
2023-01-02T08:00:22.663Z,860.52
2023-01-02T08:01:22.776Z,860.49
2023-01-02T08:02:22.795Z,860.52
2023-01-02T08:03:22.626Z,860.49
2023-01-02T08:04:22.694Z,860.46
2023-01-02T08:05:22.620Z,860.49
2023-01-02T08:06:22.594Z,860.51
2023-01-02T08:07:22.597Z,860.56
2023-01-02T08:08:22.577Z,860.51
2023-01-02T08:09:22.564Z,860.49
2023-01-02T08:10:22.578Z,860.46
2023-01-02T08:11:22.563Z,860.52
2023-01-02T08:12:22.526Z,860.55
2023-01-02T08:13:22.552Z,860.56
2023-01-02T08:14:23.811Z,860.54
2023-01-02T08:15:22.496Z,860.55
2023-01-02T08:16:22.557Z,860.56
2023-01-02T08:17:22.489Z,860.56
2023-01-02T08:18:22.475Z,860.53
2023-01-02T08:19:22.451Z,860.53
2023-01-02T08:20:22.438Z,860.50
2023-01-02T08:21:22.458Z,860.50
2023-01-02T08:22:22.421Z,860.51
2023-01-02T08:23:22.439Z,860.53
2023-01-02T08:24:22.404Z,860.49
2023-01-02T08:25:22.391Z,860.46
2023-01-02T08:26:22.381Z,860.49
2023-01-02T08:27:22.387Z,860.48
2023-01-02T08:28:22.456Z,860.43
2023-01-02T08:29:22.360Z,860.45
2023-01-02T08:30:22.329Z,860.46
2023-01-02T08:31:22.432Z,860.44
2023-01-02T08:32:22.321Z,860.39
2023-01-02T08:33:22.351Z,860.42
2023-01-02T08:34:22.299Z,860.41
2023-01-02T08:35:37.329Z,860.36
2023-01-02T08:36:23.313Z,860.39
2023-01-02T08:37:22.276Z,860.44
2023-01-02T08:38:22.264Z,860.40
2023-01-02T08:39:22.239Z,860.35
2023-01-02T08:40:22.272Z,860.33
2023-01-02T08:41:22.220Z,860.39
2023-01-02T08:42:22.201Z,860.37
2023-01-02T08:43:22.226Z,860.30
2023-01-02T08:44:22.176Z,860.28
2023-01-02T08:45:22.191Z,860.29
2023-01-02T08:46:22.250Z,860.27
2023-01-02T08:47:22.148Z,860.27
2023-01-02T08:48:22.171Z,860.28
2023-01-02T08:49:22.141Z,860.29
2023-01-02T08:50:22.112Z,860.31
2023-01-02T08:51:22.121Z,860.32
2023-01-02T08:52:22.205Z,860.30
2023-01-02T08:53:22.082Z,860.32
2023-01-02T08:54:22.065Z,860.34
2023-01-02T08:55:22.076Z,860.34
2023-01-02T08:56:22.068Z,860.34
2023-01-02T08:57:22.046Z,860.31
2023-01-02T08:58:22.048Z,860.37
2023-01-02T08:59:22.030Z,860.38
2023-01-02T09:00:22.001Z,860.35
2023-01-02T09:01:22.140Z,860.42
2023-01-02T09:02:22.222Z,860.41
2023-01-02T09:03:22.041Z,860.48
2023-01-02T09:04:21.959Z,860.45
2023-01-02T09:05:22.020Z,860.50
2023-01-02T09:06:22.566Z,860.46
2023-01-02T09:07:21.927Z,860.48
2023-01-02T09:08:21.916Z,860.50
2023-01-02T09:09:21.907Z,860.56
2023-01-02T09:10:21.893Z,860.53
2023-01-02T09:11:21.951Z,860.56
2023-01-02T09:12:22.031Z,860.51
2023-01-02T09:13:21.859Z,860.48
2023-01-02T09:14:29.382Z,860.50
2023-01-02T09:15:30.414Z,860.51
2023-01-02T09:16:29.509Z,860.51
2023-01-02T09:17:30.361Z,860.53
2023-01-02T09:18:30.364Z,860.52
2023-01-02T09:19:29.323Z,860.53
2023-01-02T09:20:28.837Z,860.57
2023-01-02T09:21:29.297Z,860.55
2023-01-02T09:22:29.311Z,860.56
2023-01-02T09:23:30.315Z,860.61
2023-01-02T09:24:29.261Z,860.62
2023-01-02T09:25:24.311Z,860.67
2023-01-02T09:26:21.717Z,860.66
2023-01-02T09:27:30.258Z,860.66
2023-01-02T09:28:21.693Z,860.66
2023-01-02T09:29:21.717Z,860.70
2023-01-02T09:30:21.676Z,860.66
2023-01-02T09:31:21.683Z,860.65
2023-01-02T09:32:21.790Z,860.68
2023-01-02T09:33:21.647Z,860.70
2023-01-02T09:34:21.661Z,860.73
2023-01-02T09:35:21.642Z,860.77
2023-01-02T09:36:21.608Z,860.74
2023-01-02T09:37:21.644Z,860.77
2023-01-02T09:38:21.587Z,860.74
2023-01-02T09:39:25.613Z,860.77
2023-01-02T09:40:22.673Z,860.76
2023-01-02T09:41:21.563Z,860.77
2023-01-02T09:42:21.568Z,860.76
2023-01-02T09:43:21.535Z,860.79
2023-01-02T09:44:21.530Z,860.69
2023-01-02T09:45:21.508Z,860.64
2023-01-02T09:46:21.554Z,860.68
2023-01-02T09:47:21.497Z,860.64
2023-01-02T09:48:21.510Z,860.69
2023-01-02T09:49:21.475Z,860.62
2023-01-02T09:50:21.459Z,860.65
2023-01-02T09:51:21.455Z,860.60
2023-01-02T09:52:21.433Z,860.62
2023-01-02T09:53:21.420Z,860.62
2023-01-02T09:54:21.449Z,860.62
2023-01-02T09:55:21.431Z,860.64
2023-01-02T09:56:23.075Z,860.65
2023-01-02T09:57:21.382Z,860.69
2023-01-02T09:58:21.363Z,860.62
2023-01-02T09:59:21.351Z,860.63
2023-01-02T10:00:21.402Z,860.63
2023-01-02T10:01:21.367Z,860.65
2023-01-02T10:02:21.578Z,860.61
2023-01-02T10:03:21.470Z,860.64
2023-01-02T10:04:21.375Z,860.65
2023-01-02T10:05:21.304Z,860.66
2023-01-02T10:06:21.324Z,860.63
2023-01-02T10:07:21.261Z,860.66
2023-01-02T10:08:25.082Z,860.64
2023-01-02T10:09:22.253Z,860.62
2023-01-02T10:10:21.247Z,860.65
2023-01-02T10:11:21.239Z,860.69
2023-01-02T10:12:21.256Z,860.66
2023-01-02T10:13:21.208Z,860.68
2023-01-02T10:14:21.560Z,860.63
2023-01-02T10:15:21.177Z,860.61
2023-01-02T10:16:21.218Z,860.54
2023-01-02T10:17:21.181Z,860.58
2023-01-02T10:18:21.180Z,860.55
2023-01-02T10:19:21.155Z,860.51
2023-01-02T10:20:24.289Z,860.49
2023-01-02T10:21:21.115Z,860.52
2023-01-02T10:22:21.110Z,860.53
2023-01-02T10:23:21.103Z,860.54
2023-01-02T10:24:21.094Z,860.55
2023-01-02T10:25:21.073Z,860.56
2023-01-02T10:26:21.059Z,860.56
2023-01-02T10:27:21.063Z,860.51
2023-01-02T10:28:21.037Z,860.48
2023-01-02T10:29:21.037Z,860.43
2023-01-02T10:30:21.061Z,860.45
2023-01-02T10:31:21.074Z,860.42
2023-01-02T10:32:21.099Z,860.42
2023-01-02T10:33:20.976Z,860.41
2023-01-02T10:34:20.967Z,860.34
2023-01-02T10:35:20.953Z,860.28
2023-01-02T10:36:20.985Z,860.21
2023-01-02T10:37:20.942Z,860.21
2023-01-02T10:38:20.952Z,860.18
2023-01-02T10:39:20.908Z,860.18
2023-01-02T10:40:20.993Z,860.18
2023-01-02T10:41:20.904Z,860.20
2023-01-02T10:42:20.891Z,860.12
2023-01-02T10:43:20.869Z,860.10
2023-01-02T10:44:20.869Z,860.09
2023-01-02T10:45:20.851Z,860.08
2023-01-02T10:46:20.922Z,860.00
2023-01-02T10:47:20.832Z,860.02
2023-01-02T10:48:20.884Z,860.00
2023-01-02T10:49:20.807Z,860.02
2023-01-02T10:50:20.821Z,859.99
2023-01-02T10:51:20.780Z,859.95
2023-01-02T10:52:20.787Z,859.97
2023-01-02T10:53:20.755Z,859.92
2023-01-02T10:54:20.780Z,859.89
2023-01-02T10:55:20.737Z,859.89
2023-01-02T10:56:20.750Z,859.93
2023-01-02T10:57:20.777Z,859.88
2023-01-02T10:58:20.728Z,859.92
2023-01-02T10:59:20.693Z,859.91
2023-01-02T11:00:27.547Z,859.95
2023-01-02T11:01:21.854Z,859.95
2023-01-02T11:02:20.763Z,859.90
2023-01-02T11:03:20.655Z,859.91
2023-01-02T11:04:20.651Z,859.86
2023-01-02T11:05:20.631Z,859.88
2023-01-02T11:06:31.042Z,859.91
2023-01-02T11:07:21.601Z,859.88
2023-01-02T11:08:20.611Z,859.81
2023-01-02T11:09:20.579Z,859.85
2023-01-02T11:10:20.583Z,859.90
2023-01-02T11:11:20.557Z,859.84
2023-01-02T11:12:26.993Z,859.83
2023-01-02T11:13:21.533Z,859.83
2023-01-02T11:14:20.528Z,859.85
2023-01-02T11:15:20.509Z,859.89
2023-01-02T11:16:20.545Z,859.89
2023-01-02T11:17:20.509Z,859.83
2023-01-02T11:18:20.503Z,859.80
2023-01-02T11:19:24.015Z,859.82
2023-01-02T11:20:21.461Z,859.85
2023-01-02T11:21:20.447Z,859.82
2023-01-02T11:22:20.458Z,859.82
2023-01-02T11:23:20.425Z,859.81
2023-01-02T11:24:20.447Z,859.82
2023-01-02T11:25:20.405Z,859.82
2023-01-02T11:26:20.422Z,859.82
2023-01-02T11:27:20.384Z,859.82
2023-01-02T11:28:20.399Z,859.80
2023-01-02T11:29:20.363Z,859.82
2023-01-02T11:30:20.377Z,859.81
2023-01-02T11:31:20.412Z,859.77
2023-01-02T11:32:20.335Z,859.77
2023-01-02T11:33:20.322Z,859.77
2023-01-02T11:34:20.314Z,859.78
2023-01-02T11:35:20.301Z,859.76
2023-01-02T11:36:20.370Z,859.79
2023-01-02T11:37:20.274Z,859.76
2023-01-02T11:38:29.106Z,859.74
2023-01-02T11:39:21.272Z,859.71
2023-01-02T11:40:20.265Z,859.66
2023-01-02T11:41:20.241Z,859.65
2023-01-02T11:42:20.241Z,859.63
2023-01-02T11:43:20.210Z,859.63
2023-01-02T11:44:20.768Z,859.63
2023-01-02T11:45:20.206Z,859.59
2023-01-02T11:46:20.306Z,859.60
2023-01-02T11:47:20.183Z,859.57
2023-01-02T11:48:20.190Z,859.57
2023-01-02T11:49:20.152Z,859.59
2023-01-02T11:50:20.140Z,859.56
2023-01-02T11:51:20.239Z,859.54
2023-01-02T11:52:20.117Z,859.58
2023-01-02T11:53:20.103Z,859.56
2023-01-02T11:54:20.116Z,859.54
2023-01-02T11:55:20.088Z,859.48
2023-01-02T11:56:20.093Z,859.49
2023-01-02T11:57:20.079Z,859.50
2023-01-02T11:58:20.072Z,859.49
2023-01-02T11:59:20.063Z,859.50
2023-01-02T12:00:20.048Z,859.44
2023-01-02T12:01:20.060Z,859.37
2023-01-02T12:02:20.112Z,859.38
2023-01-02T12:03:20.223Z,859.39
2023-01-02T12:04:19.983Z,859.36
2023-01-02T12:05:19.979Z,859.40
2023-01-02T12:06:19.993Z,859.32
2023-01-02T12:07:19.962Z,859.39
2023-01-02T12:08:19.947Z,859.38
2023-01-02T12:09:19.931Z,859.35
2023-01-02T12:10:19.934Z,859.40
2023-01-02T12:11:19.913Z,859.42
2023-01-02T12:12:19.932Z,859.41
2023-01-02T12:13:19.878Z,859.43
2023-01-02T12:14:19.871Z,859.44
2023-01-02T12:15:19.860Z,859.44
2023-01-02T12:16:19.938Z,859.45
2023-01-02T12:17:19.855Z,859.42
2023-01-02T12:18:19.839Z,859.41
2023-01-02T12:19:19.816Z,859.40
2023-01-02T12:20:19.819Z,859.40
2023-01-02T12:21:19.793Z,859.40
2023-01-02T12:22:19.777Z,859.36
2023-01-02T12:23:19.776Z,859.43
2023-01-02T12:24:19.773Z,859.46
2023-01-02T12:25:19.747Z,859.44
2023-01-02T12:26:19.731Z,859.43
2023-01-02T12:27:19.719Z,859.45
2023-01-02T12:28:19.851Z,859.47